sensor_id;sensor_type;location;lat;lon;timestamp;temperature;humidity
35129;DHT22;21301;43.626;10.580;2023-09-19T00:00:38;23.80;99.90
35129;DHT22;21301;43.626;10.580;2023-09-19T00:03:06;23.90;99.90
35129;DHT22;21301;43.626;10.580;2023-09-19T00:05:34;23.90;99.90
35129;DHT22;21301;43.626;10.580;2023-09-19T00:08:01;24.30;99.90
35129;DHT22;21301;43.626;10.580;2023-09-19T00:10:31;24.30;99.90
35129;DHT22;21301;43.626;10.580;2023-09-19T00:13:03;24.40;99.90
35129;DHT22;21301;43.626;10.580;2023-09-19T00:15:44;24.30;99.90
35129;DHT22;21301;43.626;10.580;2023-09-19T00:18:19;24.30;99.90
35129;DHT22;21301;43.626;10.580;2023-09-19T00:20:49;24.10;99.90
35129;DHT22;21301;43.626;10.580;2023-09-19T00:23:17;24.00;99.90
35129;DHT22;21301;43.626;10.580;2023-09-19T00:25:42;23.80;99.90
35129;DHT22;21301;43.626;10.580;2023-09-19T00:28:08;23.70;99.90
35129;DHT22;21301;43.626;10.580;2023-09-19T00:30:35;23.40;99.90
35129;DHT22;21301;43.626;10.580;2023-09-19T00:33:01;23.30;99.90
35129;DHT22;21301;43.626;10.580;2023-09-19T00:35:31;23.20;99.90
35129;DHT22;21301;43.626;10.580;2023-09-19T00:37:57;23.20;99.90
35129;DHT22;21301;43.626;10.580;2023-09-19T00:40:22;23.10;99.90
35129;DHT22;21301;43.626;10.580;2023-09-19T00:42:49;23.20;99.90
35129;DHT22;21301;43.626;10.580;2023-09-19T00:45:17;23.20;99.90
35129;DHT22;21301;43.626;10.580;2023-09-19T00:47:49;23.20;99.90
35129;DHT22;21301;43.626;10.580;2023-09-19T00:50:21;23.10;99.90
35129;DHT22;21301;43.626;10.580;2023-09-19T00:52:48;23.20;99.90
35129;DHT22;21301;43.626;10.580;2023-09-19T00:55:15;23.10;99.90
35129;DHT22;21301;43.626;10.580;2023-09-19T00:57:42;23.10;99.90
35129;DHT22;21301;43.626;10.580;2023-09-19T01:00:10;23.10;99.90
35129;DHT22;21301;43.626;10.580;2023-09-19T01:02:42;23.00;99.90
35129;DHT22;21301;43.626;10.580;2023-09-19T01:05:09;23.00;99.90
35129;DHT22;21301;43.626;10.580;2023-09-19T01:07:36;22.90;99.90
35129;DHT22;21301;43.626;10.580;2023-09-19T01:10:05;22.90;99.90
35129;DHT22;21301;43.626;10.580;2023-09-19T01:21:07;23.00;99.90
35129;DHT22;21301;43.626;10.580;2023-09-19T01:29:41;23.60;99.90
35129;DHT22;21301;43.626;10.580;2023-09-19T01:32:10;23.80;99.90
35129;DHT22;21301;43.626;10.580;2023-09-19T01:34:45;23.90;99.90
35129;DHT22;21301;43.626;10.580;2023-09-19T01:37:13;24.00;99.90
35129;DHT22;21301;43.626;10.580;2023-09-19T01:39:47;24.00;99.90
35129;DHT22;21301;43.626;10.580;2023-09-19T01:42:54;24.00;99.90
35129;DHT22;21301;43.626;10.580;2023-09-19T01:48:43;23.90;99.90
35129;DHT22;21301;43.626;10.580;2023-09-19T01:51:01;23.80;99.90
35129;DHT22;21301;43.626;10.580;2023-09-19T01:53:33;23.70;99.90
35129;DHT22;21301;43.626;10.580;2023-09-19T01:56:02;23.50;99.90
35129;DHT22;21301;43.626;10.580;2023-09-19T02:00:58;23.00;99.90
35129;DHT22;21301;43.626;10.580;2023-09-19T02:03:26;22.90;99.90
35129;DHT22;21301;43.626;10.580;2023-09-19T02:05:53;22.90;99.90
35129;DHT22;21301;43.626;10.580;2023-09-19T02:08:21;23.00;99.90
35129;DHT22;21301;43.626;10.580;2023-09-19T02:10:49;23.20;99.90
35129;DHT22;21301;43.626;10.580;2023-09-19T02:13:17;23.20;99.90
35129;DHT22;21301;43.626;10.580;2023-09-19T02:15:43;23.10;99.90
35129;DHT22;21301;43.626;10.580;2023-09-19T02:18:13;23.00;99.90
35129;DHT22;21301;43.626;10.580;2023-09-19T02:20:39;23.10;99.90
35129;DHT22;21301;43.626;10.580;2023-09-19T02:23:05;23.10;99.90
35129;DHT22;21301;43.626;10.580;2023-09-19T02:25:31;23.10;99.90
35129;DHT22;21301;43.626;10.580;2023-09-19T02:27:57;23.10;99.90
35129;DHT22;21301;43.626;10.580;2023-09-19T02:30:29;23.10;99.90
35129;DHT22;21301;43.626;10.580;2023-09-19T02:32:55;23.20;99.90
35129;DHT22;21301;43.626;10.580;2023-09-19T02:35:21;23.20;99.90
35129;DHT22;21301;43.626;10.580;2023-09-19T02:37:48;23.30;99.90
35129;DHT22;21301;43.626;10.580;2023-09-19T02:40:15;23.30;99.90
35129;DHT22;21301;43.626;10.580;2023-09-19T02:42:55;23.40;99.90
35129;DHT22;21301;43.626;10.580;2023-09-19T02:45:22;23.40;99.90
35129;DHT22;21301;43.626;10.580;2023-09-19T02:47:49;23.50;99.90
35129;DHT22;21301;43.626;10.580;2023-09-19T02:50:15;23.80;99.90
35129;DHT22;21301;43.626;10.580;2023-09-19T02:52:43;23.90;99.90
35129;DHT22;21301;43.626;10.580;2023-09-19T02:55:10;23.70;99.90
35129;DHT22;21301;43.626;10.580;2023-09-19T02:57:36;23.60;99.90
35129;DHT22;21301;43.626;10.580;2023-09-19T03:00:09;23.60;99.90
35129;DHT22;21301;43.626;10.580;2023-09-19T03:02:53;23.60;99.90
35129;DHT22;21301;43.626;10.580;2023-09-19T03:05:21;23.60;99.90
35129;DHT22;21301;43.626;10.580;2023-09-19T03:07:47;23.70;99.90
35129;DHT22;21301;43.626;10.580;2023-09-19T03:10:20;23.80;99.90
35129;DHT22;21301;43.626;10.580;2023-09-19T03:12:47;23.80;99.90
35129;DHT22;21301;43.626;10.580;2023-09-19T03:15:14;23.80;99.90
35129;DHT22;21301;43.626;10.580;2023-09-19T03:17:47;23.80;99.90
35129;DHT22;21301;43.626;10.580;2023-09-19T03:20:15;23.70;99.90
35129;DHT22;21301;43.626;10.580;2023-09-19T03:22:43;23.70;99.90
35129;DHT22;21301;43.626;10.580;2023-09-19T03:25:09;23.70;99.90
35129;DHT22;21301;43.626;10.580;2023-09-19T03:27:39;23.60;99.90
35129;DHT22;21301;43.626;10.580;2023-09-19T03:30:06;23.90;99.90
35129;DHT22;21301;43.626;10.580;2023-09-19T03:32:35;24.10;99.90
35129;DHT22;21301;43.626;10.580;2023-09-19T03:35:03;24.20;99.90
35129;DHT22;21301;43.626;10.580;2023-09-19T03:37:31;24.30;99.90
35129;DHT22;21301;43.626;10.580;2023-09-19T03:39:58;24.20;99.90
35129;DHT22;21301;43.626;10.580;2023-09-19T03:42:24;24.20;99.90
35129;DHT22;21301;43.626;10.580;2023-09-19T03:44:52;24.10;99.90
35129;DHT22;21301;43.626;10.580;2023-09-19T03:47:20;24.10;99.90
35129;DHT22;21301;43.626;10.580;2023-09-19T03:49:47;24.10;99.90
35129;DHT22;21301;43.626;10.580;2023-09-19T03:52:12;24.10;99.90
35129;DHT22;21301;43.626;10.580;2023-09-19T03:54:38;24.10;99.90
35129;DHT22;21301;43.626;10.580;2023-09-19T03:57:07;24.00;99.90
35129;DHT22;21301;43.626;10.580;2023-09-19T03:59:33;23.80;99.90
35129;DHT22;21301;43.626;10.580;2023-09-19T04:01:58;23.70;99.90
35129;DHT22;21301;43.626;10.580;2023-09-19T04:04:24;23.80;99.90
35129;DHT22;21301;43.626;10.580;2023-09-19T04:06:51;23.70;99.90
35129;DHT22;21301;43.626;10.580;2023-09-19T04:09:17;23.80;99.90
35129;DHT22;21301;43.626;10.580;2023-09-19T04:11:42;24.00;99.90
35129;DHT22;21301;43.626;10.580;2023-09-19T04:14:08;24.00;99.90
35129;DHT22;21301;43.626;10.580;2023-09-19T04:16:34;24.00;99.90
35129;DHT22;21301;43.626;10.580;2023-09-19T04:19:00;23.90;99.90
35129;DHT22;21301;43.626;10.580;2023-09-19T04:21:26;23.90;99.90
35129;DHT22;21301;43.626;10.580;2023-09-19T04:23:53;23.90;99.90
35129;DHT22;21301;43.626;10.580;2023-09-19T04:26:19;23.90;99.90
35129;DHT22;21301;43.626;10.580;2023-09-19T04:28:45;23.80;99.90
35129;DHT22;21301;43.626;10.580;2023-09-19T04:31:11;23.80;99.90
35129;DHT22;21301;43.626;10.580;2023-09-19T04:33:37;23.80;99.90
35129;DHT22;21301;43.626;10.580;2023-09-19T04:36:03;23.70;99.90
35129;DHT22;21301;43.626;10.580;2023-09-19T04:38:31;23.50;99.90
35129;DHT22;21301;43.626;10.580;2023-09-19T04:40:57;23.40;99.90
35129;DHT22;21301;43.626;10.580;2023-09-19T04:43:24;23.30;99.90
35129;DHT22;21301;43.626;10.580;2023-09-19T04:45:50;23.30;99.90
35129;DHT22;21301;43.626;10.580;2023-09-19T04:48:19;23.60;99.90
35129;DHT22;21301;43.626;10.580;2023-09-19T04:50:45;23.60;99.90
35129;DHT22;21301;43.626;10.580;2023-09-19T04:53:11;23.70;99.90
35129;DHT22;21301;43.626;10.580;2023-09-19T04:55:37;23.70;99.90
35129;DHT22;21301;43.626;10.580;2023-09-19T04:58:02;23.80;99.90
35129;DHT22;21301;43.626;10.580;2023-09-19T05:00:29;23.80;99.90
35129;DHT22;21301;43.626;10.580;2023-09-19T05:02:57;23.80;99.90
35129;DHT22;21301;43.626;10.580;2023-09-19T05:05:23;23.80;99.90
35129;DHT22;21301;43.626;10.580;2023-09-19T05:07:52;23.60;99.90
35129;DHT22;21301;43.626;10.580;2023-09-19T05:10:20;23.50;99.90
35129;DHT22;21301;43.626;10.580;2023-09-19T05:12:46;23.20;99.90
35129;DHT22;21301;43.626;10.580;2023-09-19T05:15:14;23.10;99.90
35129;DHT22;21301;43.626;10.580;2023-09-19T05:17:51;23.00;99.90
35129;DHT22;21301;43.626;10.580;2023-09-19T05:20:17;22.70;99.90
35129;DHT22;21301;43.626;10.580;2023-09-19T05:25:36;22.90;99.90
35129;DHT22;21301;43.626;10.580;2023-09-19T05:28:03;23.10;99.90
35129;DHT22;21301;43.626;10.580;2023-09-19T05:30:32;23.10;99.90
35129;DHT22;21301;43.626;10.580;2023-09-19T05:32:58;23.10;99.90
35129;DHT22;21301;43.626;10.580;2023-09-19T05:35:24;23.10;99.90
35129;DHT22;21301;43.626;10.580;2023-09-19T05:37:51;23.10;99.90
35129;DHT22;21301;43.626;10.580;2023-09-19T05:40:17;23.20;99.90
35129;DHT22;21301;43.626;10.580;2023-09-19T05:42:43;23.30;99.90
35129;DHT22;21301;43.626;10.580;2023-09-19T05:45:10;23.40;99.90
35129;DHT22;21301;43.626;10.580;2023-09-19T05:47:39;23.40;99.90
35129;DHT22;21301;43.626;10.580;2023-09-19T05:50:10;23.40;99.90
35129;DHT22;21301;43.626;10.580;2023-09-19T05:52:36;23.50;99.90
35129;DHT22;21301;43.626;10.580;2023-09-19T05:55:05;23.30;99.90
35129;DHT22;21301;43.626;10.580;2023-09-19T05:57:33;23.10;99.90
35129;DHT22;21301;43.626;10.580;2023-09-19T05:59:59;22.90;99.90
35129;DHT22;21301;43.626;10.580;2023-09-19T06:02:24;22.90;99.90
35129;DHT22;21301;43.626;10.580;2023-09-19T06:04:54;22.90;99.90
35129;DHT22;21301;43.626;10.580;2023-09-19T06:07:24;23.10;99.90
35129;DHT22;21301;43.626;10.580;2023-09-19T06:09:52;23.30;99.90
35129;DHT22;21301;43.626;10.580;2023-09-19T06:12:19;23.70;99.90
35129;DHT22;21301;43.626;10.580;2023-09-19T06:14:45;23.90;99.90
35129;DHT22;21301;43.626;10.580;2023-09-19T06:17:11;24.90;99.90
35129;DHT22;21301;43.626;10.580;2023-09-19T06:19:37;26.00;99.90
35129;DHT22;21301;43.626;10.580;2023-09-19T06:22:03;25.60;99.90
35129;DHT22;21301;43.626;10.580;2023-09-19T06:24:29;25.70;99.90
35129;DHT22;21301;43.626;10.580;2023-09-19T06:26:56;26.30;99.90
35129;DHT22;21301;43.626;10.580;2023-09-19T06:29:21;26.80;99.90
35129;DHT22;21301;43.626;10.580;2023-09-19T06:31:48;27.40;99.90
35129;DHT22;21301;43.626;10.580;2023-09-19T06:34:14;27.90;99.90
35129;DHT22;21301;43.626;10.580;2023-09-19T06:36:44;28.00;99.90
35129;DHT22;21301;43.626;10.580;2023-09-19T06:39:10;27.60;99.90
35129;DHT22;21301;43.626;10.580;2023-09-19T06:41:39;27.60;99.90
35129;DHT22;21301;43.626;10.580;2023-09-19T06:44:09;27.20;99.90
35129;DHT22;21301;43.626;10.580;2023-09-19T06:46:35;27.30;99.90
35129;DHT22;21301;43.626;10.580;2023-09-19T06:49:04;27.90;99.90
35129;DHT22;21301;43.626;10.580;2023-09-19T06:51:32;28.70;99.90
35129;DHT22;21301;43.626;10.580;2023-09-19T06:54:01;29.00;99.90
35129;DHT22;21301;43.626;10.580;2023-09-19T06:56:27;28.50;99.90
35129;DHT22;21301;43.626;10.580;2023-09-19T06:58:53;29.10;99.90
35129;DHT22;21301;43.626;10.580;2023-09-19T07:01:18;29.60;99.90
35129;DHT22;21301;43.626;10.580;2023-09-19T07:03:44;30.30;99.90
35129;DHT22;21301;43.626;10.580;2023-09-19T07:06:11;30.50;99.90
35129;DHT22;21301;43.626;10.580;2023-09-19T07:08:37;30.70;99.90
35129;DHT22;21301;43.626;10.580;2023-09-19T07:11:04;30.50;99.90
35129;DHT22;21301;43.626;10.580;2023-09-19T07:13:31;30.80;98.40
35129;DHT22;21301;43.626;10.580;2023-09-19T07:16:01;31.10;95.80
35129;DHT22;21301;43.626;10.580;2023-09-19T07:18:26;31.70;43.60
35129;DHT22;21301;43.626;10.580;2023-09-19T07:20:57;31.20;1.00
35129;DHT22;21301;43.626;10.580;2023-09-19T07:23:26;30.70;24.80
35129;DHT22;21301;43.626;10.580;2023-09-19T07:25:56;30.80;99.90
35129;DHT22;21301;43.626;10.580;2023-09-19T07:28:21;30.50;1.00
35129;DHT22;21301;43.626;10.580;2023-09-19T07:30:48;29.90;99.90
35129;DHT22;21301;43.626;10.580;2023-09-19T07:33:14;30.30;99.90
35129;DHT22;21301;43.626;10.580;2023-09-19T07:35:40;30.20;99.90
35129;DHT22;21301;43.626;10.580;2023-09-19T07:38:07;30.80;22.60
35129;DHT22;21301;43.626;10.580;2023-09-19T07:40:33;31.30;99.90
35129;DHT22;21301;43.626;10.580;2023-09-19T07:42:59;30.40;99.90
35129;DHT22;21301;43.626;10.580;2023-09-19T07:45:30;29.80;99.90
35129;DHT22;21301;43.626;10.580;2023-09-19T07:47:55;29.50;99.90
35129;DHT22;21301;43.626;10.580;2023-09-19T07:50:21;29.30;99.90
35129;DHT22;21301;43.626;10.580;2023-09-19T07:52:49;29.70;99.90
35129;DHT22;21301;43.626;10.580;2023-09-19T07:55:19;29.40;52.30
35129;DHT22;21301;43.626;10.580;2023-09-19T07:57:48;29.30;1.00
35129;DHT22;21301;43.626;10.580;2023-09-19T08:00:14;30.00;99.90
35129;DHT22;21301;43.626;10.580;2023-09-19T08:02:41;30.70;99.90
35129;DHT22;21301;43.626;10.580;2023-09-19T08:05:09;30.70;99.90
35129;DHT22;21301;43.626;10.580;2023-09-19T08:07:42;30.70;99.90
35129;DHT22;21301;43.626;10.580;2023-09-19T08:10:08;31.20;51.60
35129;DHT22;21301;43.626;10.580;2023-09-19T08:12:45;31.50;99.90
35129;DHT22;21301;43.626;10.580;2023-09-19T08:15:19;32.00;99.90
35129;DHT22;21301;43.626;10.580;2023-09-19T08:17:45;31.60;23.20
35129;DHT22;21301;43.626;10.580;2023-09-19T08:20:12;30.60;99.90
35129;DHT22;21301;43.626;10.580;2023-09-19T08:22:51;30.30;1.00
35129;DHT22;21301;43.626;10.580;2023-09-19T08:25:18;30.90;1.00
35129;DHT22;21301;43.626;10.580;2023-09-19T08:27:48;31.00;1.00
35129;DHT22;21301;43.626;10.580;2023-09-19T08:30:22;31.10;1.00
35129;DHT22;21301;43.626;10.580;2023-09-19T08:32:59;31.70;99.90
35129;DHT22;21301;43.626;10.580;2023-09-19T08:35:26;32.10;99.90
35129;DHT22;21301;43.626;10.580;2023-09-19T08:37:51;31.70;99.90
35129;DHT22;21301;43.626;10.580;2023-09-19T08:40:17;31.40;99.90
35129;DHT22;21301;43.626;10.580;2023-09-19T08:42:53;31.80;99.90
35129;DHT22;21301;43.626;10.580;2023-09-19T08:45:24;32.70;98.50
35129;DHT22;21301;43.626;10.580;2023-09-19T08:48:12;31.60;99.90
35129;DHT22;21301;43.626;10.580;2023-09-19T08:50:49;32.20;99.90
35129;DHT22;21301;43.626;10.580;2023-09-19T08:53:26;31.30;99.90
35129;DHT22;21301;43.626;10.580;2023-09-19T08:55:56;31.80;99.90
35129;DHT22;21301;43.626;10.580;2023-09-19T08:58:27;30.90;99.90
35129;DHT22;21301;43.626;10.580;2023-09-19T09:00:57;30.90;99.90
35129;DHT22;21301;43.626;10.580;2023-09-19T09:03:25;31.10;99.90
35129;DHT22;21301;43.626;10.580;2023-09-19T09:05:53;30.70;99.90
35129;DHT22;21301;43.626;10.580;2023-09-19T09:08:21;30.30;1.00
35129;DHT22;21301;43.626;10.580;2023-09-19T09:10:47;30.80;1.00
35129;DHT22;21301;43.626;10.580;2023-09-19T09:13:16;31.90;99.90
35129;DHT22;21301;43.626;10.580;2023-09-19T09:15:43;30.50;99.90
35129;DHT22;21301;43.626;10.580;2023-09-19T09:18:10;30.20;99.90
35129;DHT22;21301;43.626;10.580;2023-09-19T09:20:39;30.70;99.90
35129;DHT22;21301;43.626;10.580;2023-09-19T09:23:04;31.60;99.90
35129;DHT22;21301;43.626;10.580;2023-09-19T09:25:49;31.70;96.50
35129;DHT22;21301;43.626;10.580;2023-09-19T09:28:24;31.50;63.60
35129;DHT22;21301;43.626;10.580;2023-09-19T09:30:54;32.60;24.80
35129;DHT22;21301;43.626;10.580;2023-09-19T09:33:20;32.70;11.50
35129;DHT22;21301;43.626;10.580;2023-09-19T09:38:21;32.40;17.70
35129;DHT22;21301;43.626;10.580;2023-09-19T09:40:52;32.60;19.40
35129;DHT22;21301;43.626;10.580;2023-09-19T09:43:44;33.50;11.40
35129;DHT22;21301;43.626;10.580;2023-09-19T09:46:20;33.70;1.00
35129;DHT22;21301;43.626;10.580;2023-09-19T09:49:08;33.60;1.00
35129;DHT22;21301;43.626;10.580;2023-09-19T09:54:28;34.00;1.00
35129;DHT22;21301;43.626;10.580;2023-09-19T09:57:05;33.90;1.00
35129;DHT22;21301;43.626;10.580;2023-09-19T09:59:56;34.40;99.90
35129;DHT22;21301;43.626;10.580;2023-09-19T10:02:42;33.20;1.00
35129;DHT22;21301;43.626;10.580;2023-09-19T10:05:16;33.70;1.00
35129;DHT22;21301;43.626;10.580;2023-09-19T10:07:49;34.40;1.00
35129;DHT22;21301;43.626;10.580;2023-09-19T10:10:37;33.40;1.00
35129;DHT22;21301;43.626;10.580;2023-09-19T10:13:16;33.30;1.00
35129;DHT22;21301;43.626;10.580;2023-09-19T10:15:48;32.50;1.00
35129;DHT22;21301;43.626;10.580;2023-09-19T10:18:27;33.30;1.00
35129;DHT22;21301;43.626;10.580;2023-09-19T10:20:56;33.40;1.00
35129;DHT22;21301;43.626;10.580;2023-09-19T10:23:22;33.10;1.00
35129;DHT22;21301;43.626;10.580;2023-09-19T10:25:50;32.80;1.00
35129;DHT22;21301;43.626;10.580;2023-09-19T10:28:18;33.00;1.00
35129;DHT22;21301;43.626;10.580;2023-09-19T10:30:51;32.90;1.00
35129;DHT22;21301;43.626;10.580;2023-09-19T10:33:22;33.50;1.00
35129;DHT22;21301;43.626;10.580;2023-09-19T10:35:50;33.90;1.00
35129;DHT22;21301;43.626;10.580;2023-09-19T10:38:23;33.70;1.00
35129;DHT22;21301;43.626;10.580;2023-09-19T10:40:52;33.30;1.00
35129;DHT22;21301;43.626;10.580;2023-09-19T10:43:20;33.50;1.00
35129;DHT22;21301;43.626;10.580;2023-09-19T10:45:49;32.70;1.00
35129;DHT22;21301;43.626;10.580;2023-09-19T10:48:18;32.50;1.00
35129;DHT22;21301;43.626;10.580;2023-09-19T10:50:58;32.30;1.00
35129;DHT22;21301;43.626;10.580;2023-09-19T10:53:40;31.90;1.00
35129;DHT22;21301;43.626;10.580;2023-09-19T10:56:09;31.90;1.00
35129;DHT22;21301;43.626;10.580;2023-09-19T10:58:43;32.30;1.00
35129;DHT22;21301;43.626;10.580;2023-09-19T11:01:11;32.10;1.00
35129;DHT22;21301;43.626;10.580;2023-09-19T11:03:41;33.10;1.00
35129;DHT22;21301;43.626;10.580;2023-09-19T11:06:21;33.00;1.00
35129;DHT22;21301;43.626;10.580;2023-09-19T11:11:49;32.30;1.00
35129;DHT22;21301;43.626;10.580;2023-09-19T11:30:40;31.90;1.00
35129;DHT22;21301;43.626;10.580;2023-09-19T11:33:30;31.20;1.00
35129;DHT22;21301;43.626;10.580;2023-09-19T11:36:06;32.10;1.00
35129;DHT22;21301;43.626;10.580;2023-09-19T11:41:38;30.50;1.00
35129;DHT22;21301;43.626;10.580;2023-09-19T11:49:17;31.30;1.00
35129;DHT22;21301;43.626;10.580;2023-09-19T11:51:50;31.20;1.00
35129;DHT22;21301;43.626;10.580;2023-09-19T11:54:20;31.70;1.00
35129;DHT22;21301;43.626;10.580;2023-09-19T11:56:51;31.20;1.00
35129;DHT22;21301;43.626;10.580;2023-09-19T11:59:24;31.50;1.00
35129;DHT22;21301;43.626;10.580;2023-09-19T12:02:00;31.80;1.00
35129;DHT22;21301;43.626;10.580;2023-09-19T12:04:36;31.70;1.00
35129;DHT22;21301;43.626;10.580;2023-09-19T12:07:08;32.10;1.00
35129;DHT22;21301;43.626;10.580;2023-09-19T12:09:42;32.40;1.00
35129;DHT22;21301;43.626;10.580;2023-09-19T12:12:10;31.70;1.00
35129;DHT22;21301;43.626;10.580;2023-09-19T12:14:38;31.70;1.00
35129;DHT22;21301;43.626;10.580;2023-09-19T12:17:06;31.50;1.00
35129;DHT22;21301;43.626;10.580;2023-09-19T12:19:32;32.30;1.00
35129;DHT22;21301;43.626;10.580;2023-09-19T12:22:00;32.20;1.00
35129;DHT22;21301;43.626;10.580;2023-09-19T12:24:30;32.30;1.00
35129;DHT22;21301;43.626;10.580;2023-09-19T12:27:03;32.10;1.00
